createdAt,value
2018-02-19T00:00:58.017Z,3.73
2018-02-19T00:03:25.563Z,3.65
2018-02-19T00:05:53.102Z,3.64
2018-02-19T00:08:20.664Z,3.62
2018-02-19T00:10:48.204Z,3.52
2018-02-19T00:13:15.753Z,3.48
2018-02-19T00:15:43.593Z,3.53
2018-02-19T00:18:14.659Z,3.53
2018-02-19T00:20:42.196Z,3.58
2018-02-19T00:23:09.754Z,3.51
2018-02-19T00:25:37.291Z,3.54
2018-02-19T00:28:04.828Z,3.55
2018-02-19T00:30:32.406Z,3.42
2018-02-19T00:32:59.917Z,3.44
2018-02-19T00:35:27.448Z,3.45
2018-02-19T00:37:55.007Z,3.36
2018-02-19T00:40:22.902Z,3.42
2018-02-19T00:42:50.427Z,3.33
2018-02-19T00:45:17.989Z,3.35
2018-02-19T00:47:45.526Z,3.33
2018-02-19T00:50:13.056Z,3.29
2018-02-19T00:52:40.647Z,3.21
2018-02-19T00:55:08.458Z,3.19
2018-02-19T00:57:36.024Z,3.15
2018-02-19T01:00:03.883Z,3.16
2018-02-19T01:02:31.453Z,3.23
2018-02-19T01:04:58.980Z,3.22
2018-02-19T01:07:26.533Z,3.26
2018-02-19T01:09:54.083Z,3.21
2018-02-19T01:12:21.628Z,3.22
2018-02-19T01:14:49.212Z,3.18
2018-02-19T01:17:16.738Z,3.12
2018-02-19T01:19:44.262Z,3.15
2018-02-19T01:22:11.828Z,3.15
2018-02-19T01:24:39.344Z,3.15
2018-02-19T01:27:06.889Z,3.12
2018-02-19T01:29:34.450Z,3.12
2018-02-19T01:32:01.981Z,3.04
2018-02-19T01:34:29.507Z,3.01
2018-02-19T01:36:57.065Z,3.00
2018-02-19T01:39:24.592Z,3.02
2018-02-19T01:41:52.192Z,3.02
2018-02-19T01:44:19.752Z,2.99
2018-02-19T01:46:47.278Z,3.00
2018-02-19T01:49:14.813Z,2.97
2018-02-19T01:51:42.670Z,2.96
2018-02-19T01:54:10.224Z,2.98
2018-02-19T01:56:37.749Z,2.95
2018-02-19T01:59:05.303Z,2.90
2018-02-19T02:01:32.868Z,2.96
2018-02-19T02:04:00.419Z,2.92
2018-02-19T02:06:27.994Z,2.92
2018-02-19T02:08:55.516Z,2.91
2018-02-19T02:11:23.047Z,2.94
2018-02-19T02:13:50.599Z,2.82
2018-02-19T02:16:18.123Z,2.79
2018-02-19T02:18:45.650Z,2.80
2018-02-19T02:21:13.333Z,2.78
2018-02-19T02:23:40.831Z,2.83
2018-02-19T02:26:08.613Z,2.84
2018-02-19T02:28:36.174Z,2.86
2018-02-19T02:31:03.743Z,2.87
2018-02-19T02:33:31.287Z,2.79
2018-02-19T02:35:58.873Z,2.79
2018-02-19T02:38:26.395Z,2.83
2018-02-19T02:40:54.178Z,2.80
2018-02-19T02:43:22.150Z,2.79
2018-02-19T02:45:49.676Z,2.80
2018-02-19T02:48:17.213Z,2.77
2018-02-19T02:50:44.774Z,2.71
2018-02-19T02:53:12.300Z,2.65
2018-02-19T02:55:39.844Z,2.61
2018-02-19T02:58:07.395Z,2.62
2018-02-19T03:00:34.957Z,2.60
2018-02-19T03:03:02.494Z,2.58
2018-02-19T03:05:30.052Z,2.57
2018-02-19T03:07:57.581Z,2.58
2018-02-19T03:10:25.415Z,2.58
2018-02-19T03:12:52.976Z,2.62
2018-02-19T03:15:20.498Z,2.54
2018-02-19T03:17:48.407Z,2.52
2018-02-19T03:20:15.963Z,2.58
2018-02-19T03:22:43.495Z,2.60
2018-02-19T03:25:11.293Z,2.59
2018-02-19T03:27:39.183Z,2.66
2018-02-19T03:30:06.715Z,2.60
2018-02-19T03:32:34.242Z,2.54
2018-02-19T03:35:01.811Z,2.48
2018-02-19T03:37:29.341Z,2.53
2018-02-19T03:39:56.850Z,2.46
2018-02-19T03:42:24.434Z,2.49
2018-02-19T03:44:52.006Z,2.35
2018-02-19T03:47:19.539Z,2.32
2018-02-19T03:49:47.099Z,2.06
2018-02-19T03:52:14.628Z,2.20
2018-02-19T03:54:42.164Z,2.20
2018-02-19T03:57:09.711Z,2.31
2018-02-19T03:59:37.241Z,2.36
2018-02-19T04:02:05.126Z,2.38
2018-02-19T04:04:32.687Z,2.37
2018-02-19T04:07:00.218Z,2.36
2018-02-19T04:09:27.814Z,2.42
2018-02-19T04:11:55.374Z,2.38
2018-02-19T04:14:22.895Z,2.40
2018-02-19T04:16:50.426Z,2.12
2018-02-19T04:19:17.981Z,2.03
2018-02-19T04:21:45.498Z,2.09
2018-02-19T04:24:13.040Z,2.13
2018-02-19T04:26:40.603Z,2.14
2018-02-19T04:29:08.131Z,2.21
2018-02-19T04:31:35.658Z,2.23
2018-02-19T04:34:03.251Z,2.20
2018-02-19T04:36:30.782Z,2.22
2018-02-19T04:38:58.397Z,2.18
2018-02-19T04:41:25.941Z,2.21
2018-02-19T04:43:53.746Z,2.21
2018-02-19T04:46:23.134Z,1.99
2018-02-19T04:48:50.691Z,1.85
2018-02-19T04:51:18.219Z,1.87
2018-02-19T04:53:45.738Z,1.92
2018-02-19T04:56:13.303Z,1.98
2018-02-19T04:58:41.159Z,2.02
2018-02-19T05:01:08.694Z,2.00
2018-02-19T05:03:36.244Z,1.93
2018-02-19T05:06:03.762Z,1.96
2018-02-19T05:08:31.610Z,1.89
2018-02-19T05:10:59.162Z,1.93
2018-02-19T05:13:26.691Z,1.83
2018-02-19T05:15:54.211Z,1.73
2018-02-19T05:18:21.770Z,1.73
2018-02-19T05:20:49.308Z,1.85
2018-02-19T05:23:17.074Z,1.88
2018-02-19T05:25:44.635Z,1.78
2018-02-19T05:28:12.164Z,1.70
2018-02-19T05:30:39.700Z,1.63
2018-02-19T05:33:07.233Z,1.65
2018-02-19T05:35:34.757Z,1.64
2018-02-19T05:38:02.279Z,1.69
2018-02-19T05:40:30.112Z,1.76
2018-02-19T05:42:57.677Z,1.77
2018-02-19T05:45:25.190Z,1.74
2018-02-19T05:47:52.751Z,1.74
2018-02-19T05:50:20.276Z,1.68
2018-02-19T05:52:47.884Z,1.79
2018-02-19T05:55:15.441Z,1.76
2018-02-19T05:57:43.237Z,1.66
2018-02-19T06:00:10.750Z,1.58
2018-02-19T06:02:38.306Z,1.61
2018-02-19T06:05:05.835Z,1.74
2018-02-19T06:07:33.350Z,1.68
2018-02-19T06:10:00.980Z,1.72
2018-02-19T06:12:28.511Z,1.68
2018-02-19T06:14:56.049Z,1.62
2018-02-19T06:17:23.608Z,1.63
2018-02-19T06:19:51.401Z,1.61
2018-02-19T06:22:19.259Z,1.52
2018-02-19T06:24:46.825Z,1.56
2018-02-19T06:27:14.354Z,1.60
2018-02-19T06:29:41.877Z,1.67
2018-02-19T06:32:09.429Z,1.66
2018-02-19T06:34:36.963Z,1.61
2018-02-19T06:37:04.483Z,1.67
2018-02-19T06:39:32.039Z,1.69
2018-02-19T06:41:59.575Z,1.65
2018-02-19T06:44:27.121Z,1.61
2018-02-19T06:46:54.673Z,1.72
2018-02-19T06:49:22.517Z,1.76
2018-02-19T06:51:50.048Z,1.67
2018-02-19T06:54:17.636Z,1.77
2018-02-19T06:56:45.513Z,1.71
2018-02-19T06:59:13.028Z,1.65
2018-02-19T07:01:40.647Z,1.51
2018-02-19T07:04:08.212Z,1.53
2018-02-19T07:06:35.766Z,1.66
2018-02-19T07:09:03.426Z,1.68
2018-02-19T07:11:31.240Z,1.62
2018-02-19T07:13:58.755Z,1.61
2018-02-19T07:16:26.294Z,1.65
2018-02-19T07:18:53.816Z,1.68
2018-02-19T07:21:21.343Z,1.72
2018-02-19T07:23:48.921Z,1.45
2018-02-19T07:26:16.465Z,1.55
2018-02-19T07:28:43.996Z,1.62
2018-02-19T07:31:11.567Z,1.66
2018-02-19T07:33:39.115Z,1.50
2018-02-19T07:36:06.641Z,1.69
2018-02-19T07:38:34.215Z,1.75
2018-02-19T07:41:01.755Z,1.87
2018-02-19T07:43:29.290Z,2.00
2018-02-19T07:45:56.847Z,2.08
2018-02-19T07:48:24.417Z,2.29
2018-02-19T07:50:51.943Z,2.21
2018-02-19T07:53:20.203Z,2.30
2018-02-19T07:55:47.990Z,2.36
2018-02-19T07:58:15.616Z,2.36
2018-02-19T08:00:43.180Z,2.51
2018-02-19T08:03:10.724Z,2.52
2018-02-19T08:05:38.258Z,2.44
2018-02-19T08:08:05.876Z,2.43
2018-02-19T08:10:33.663Z,2.56
2018-02-19T08:13:01.430Z,2.71
2018-02-19T08:15:28.981Z,2.68
2018-02-19T08:17:56.757Z,2.31
2018-02-19T08:20:24.279Z,2.14
2018-02-19T08:22:51.845Z,2.16
2018-02-19T08:25:19.379Z,2.23
2018-02-19T08:27:46.964Z,2.24
2018-02-19T08:30:14.568Z,2.32
2018-02-19T08:32:42.093Z,2.09
2018-02-19T08:35:09.618Z,2.18
2018-02-19T08:37:37.449Z,2.30
2018-02-19T08:40:05.015Z,2.00
2018-02-19T08:42:32.576Z,2.27
2018-02-19T08:45:00.137Z,2.41
2018-02-19T08:47:27.668Z,2.51
2018-02-19T08:49:55.211Z,2.53
2018-02-19T08:52:22.755Z,2.50
2018-02-19T08:54:50.288Z,2.15
2018-02-19T08:57:17.806Z,2.28
2018-02-19T08:59:45.349Z,2.67
2018-02-19T09:02:12.909Z,2.83
2018-02-19T09:04:40.739Z,2.85
2018-02-19T09:07:08.302Z,3.01
2018-02-19T09:09:35.855Z,2.74
2018-02-19T09:12:03.442Z,3.11
2018-02-19T09:14:31.268Z,3.46
2018-02-19T09:16:58.781Z,3.58
2018-02-19T09:19:26.606Z,3.81
2018-02-19T09:21:54.463Z,3.69
2018-02-19T09:24:21.995Z,3.75
2018-02-19T09:26:49.892Z,3.79
2018-02-19T09:29:17.437Z,3.89
2018-02-19T09:31:45.217Z,3.87
2018-02-19T09:34:13.004Z,3.86
2018-02-19T09:36:40.538Z,3.76
2018-02-19T09:39:08.072Z,3.85
2018-02-19T09:41:35.602Z,3.88
2018-02-19T09:44:03.157Z,3.81
2018-02-19T09:46:30.683Z,3.99
2018-02-19T09:48:58.211Z,4.07
2018-02-19T09:51:26.006Z,4.10
2018-02-19T09:53:53.535Z,4.07
2018-02-19T09:56:21.337Z,3.97
2018-02-19T09:58:48.987Z,4.02
2018-02-19T10:01:16.507Z,4.14
2018-02-19T10:03:44.025Z,3.95
2018-02-19T10:06:11.583Z,4.18
2018-02-19T10:08:39.195Z,4.39
2018-02-19T10:11:06.717Z,4.52
2018-02-19T10:13:34.291Z,4.47
2018-02-19T10:16:02.131Z,4.52
2018-02-19T10:18:29.659Z,4.57
2018-02-19T10:20:57.250Z,4.72
2018-02-19T10:23:24.777Z,4.75
2018-02-19T10:25:52.578Z,4.85
2018-02-19T10:28:20.159Z,5.11
2018-02-19T10:30:47.999Z,4.88
2018-02-19T10:33:15.546Z,4.61
2018-02-19T10:35:43.165Z,4.09
2018-02-19T10:38:10.688Z,4.32
2018-02-19T10:40:38.209Z,4.81
2018-02-19T10:43:05.773Z,4.96
2018-02-19T10:45:33.320Z,4.19
2018-02-19T10:48:01.131Z,4.28
2018-02-19T10:50:29.001Z,4.70
2018-02-19T10:52:56.867Z,4.88
2018-02-19T10:55:24.379Z,5.09
2018-02-19T10:57:52.039Z,5.41
2018-02-19T11:00:25.796Z,5.61
2018-02-19T11:02:53.347Z,5.80
2018-02-19T11:05:20.863Z,6.04
2018-02-19T11:07:52.159Z,5.93
2018-02-19T11:10:19.799Z,6.06
2018-02-19T11:12:48.155Z,6.10
2018-02-19T11:15:15.683Z,6.20
2018-02-19T11:17:43.260Z,5.99
2018-02-19T11:20:10.798Z,6.01
2018-02-19T11:22:38.360Z,5.82
2018-02-19T11:25:06.216Z,6.04
2018-02-19T11:27:33.738Z,6.15
2018-02-19T11:30:01.299Z,5.74
2018-02-19T11:32:28.909Z,5.28
2018-02-19T11:34:56.484Z,5.19
2018-02-19T11:37:24.026Z,5.48
2018-02-19T11:39:51.607Z,5.70
2018-02-19T11:42:19.173Z,5.83
2018-02-19T11:44:46.698Z,6.12
2018-02-19T11:47:14.386Z,6.13
2018-02-19T11:49:41.955Z,5.98
2018-02-19T11:52:09.509Z,6.18
2018-02-19T11:54:37.205Z,6.41
2018-02-19T11:57:04.747Z,6.39
2018-02-19T11:59:32.287Z,6.40
2018-02-19T12:01:59.845Z,6.39
2018-02-19T12:04:27.377Z,6.46
2018-02-19T12:06:54.934Z,6.58
2018-02-19T12:09:22.840Z,6.64
2018-02-19T12:11:50.391Z,6.89
2018-02-19T12:14:17.909Z,7.07
2018-02-19T12:16:45.699Z,7.24
2018-02-19T12:19:13.266Z,7.23
2018-02-19T12:21:41.036Z,7.07
2018-02-19T12:24:08.594Z,7.05
2018-02-19T12:26:36.125Z,7.14
2018-02-19T12:29:03.661Z,6.85
2018-02-19T12:31:31.216Z,6.68
2018-02-19T12:33:58.738Z,6.48
2018-02-19T12:36:26.611Z,6.66
2018-02-19T12:38:54.278Z,6.70
2018-02-19T12:41:21.799Z,6.72
2018-02-19T12:43:49.319Z,6.43
2018-02-19T12:46:16.904Z,6.63
2018-02-19T12:48:44.440Z,6.65
2018-02-19T12:51:12.023Z,6.70
2018-02-19T12:53:39.605Z,6.68
2018-02-19T12:56:07.130Z,6.56
2018-02-19T12:58:34.683Z,6.33
2018-02-19T13:01:02.291Z,6.56
2018-02-19T13:03:30.832Z,6.82
2018-02-19T13:06:00.397Z,6.89
2018-02-19T13:08:27.982Z,6.96
2018-02-19T13:10:55.523Z,7.13
2018-02-19T13:13:23.059Z,7.21
2018-02-19T13:15:50.658Z,7.13
2018-02-19T13:18:18.475Z,7.09
2018-02-19T13:20:45.985Z,7.20
2018-02-19T13:23:13.844Z,7.11
2018-02-19T13:25:41.531Z,7.14
2018-02-19T13:28:09.365Z,7.10
2018-02-19T13:30:37.233Z,7.30
2018-02-19T13:33:04.843Z,7.11
2018-02-19T13:35:32.662Z,6.95
2018-02-19T13:38:00.214Z,6.99
2018-02-19T13:40:28.090Z,7.05
2018-02-19T13:42:55.620Z,7.07
2018-02-19T13:45:23.184Z,7.00
2018-02-19T13:47:50.932Z,6.88
2018-02-19T13:50:18.464Z,6.82
2018-02-19T13:52:46.020Z,6.99
2018-02-19T13:55:13.542Z,7.08
2018-02-19T13:57:41.088Z,7.15
2018-02-19T14:00:08.649Z,7.06
2018-02-19T14:02:36.186Z,7.07
2018-02-19T14:05:03.786Z,6.99
2018-02-19T14:07:31.816Z,6.87
2018-02-19T14:09:59.340Z,6.04
2018-02-19T14:12:26.876Z,6.18
2018-02-19T14:14:54.875Z,6.26
2018-02-19T14:17:22.735Z,6.67
2018-02-19T14:19:50.263Z,6.97
2018-02-19T14:22:17.835Z,7.21
2018-02-19T14:24:46.210Z,7.19
2018-02-19T14:27:13.959Z,7.18
2018-02-19T14:29:41.656Z,7.17
2018-02-19T14:32:09.186Z,6.61
2018-02-19T14:34:37.002Z,6.72
2018-02-19T14:37:04.627Z,6.58
2018-02-19T14:39:32.553Z,6.27
2018-02-19T14:42:00.409Z,6.17
2018-02-19T14:44:28.001Z,6.75
2018-02-19T14:46:55.827Z,6.93
2018-02-19T14:49:23.347Z,6.99
2018-02-19T14:51:50.923Z,6.47
2018-02-19T14:54:20.915Z,6.16
2018-02-19T14:56:48.736Z,6.17
2018-02-19T14:59:16.325Z,6.11
2018-02-19T15:01:43.858Z,5.88
2018-02-19T15:04:11.384Z,5.85
2018-02-19T15:06:38.947Z,6.03
2018-02-19T15:09:06.733Z,6.03
2018-02-19T15:11:34.268Z,6.14
2018-02-19T15:14:01.861Z,6.29
2018-02-19T15:16:29.724Z,6.30
2018-02-19T15:18:57.284Z,6.32
2018-02-19T15:21:24.864Z,6.36
2018-02-19T15:23:52.433Z,6.02
2018-02-19T15:26:19.952Z,5.75
2018-02-19T15:28:47.512Z,5.79
2018-02-19T15:31:15.039Z,5.69
2018-02-19T15:33:42.586Z,5.52
2018-02-19T15:36:10.255Z,5.27
2018-02-19T15:38:37.787Z,5.27
2018-02-19T15:41:05.322Z,5.35
2018-02-19T15:43:32.907Z,5.40
2018-02-19T15:46:00.702Z,5.43
2018-02-19T15:48:28.328Z,5.32
2018-02-19T15:50:55.887Z,5.49
2018-02-19T15:53:23.744Z,5.54
2018-02-19T15:55:51.512Z,5.52
2018-02-19T15:58:19.078Z,5.52
2018-02-19T16:00:46.607Z,5.52
2018-02-19T16:03:14.398Z,5.50
2018-02-19T16:05:41.958Z,5.48
2018-02-19T16:08:09.822Z,5.46
2018-02-19T16:10:37.359Z,5.40
2018-02-19T16:13:04.952Z,5.37
2018-02-19T16:15:32.480Z,5.34
2018-02-19T16:18:00.007Z,5.34
2018-02-19T16:20:27.828Z,5.35
2018-02-19T16:22:55.356Z,5.38
2018-02-19T16:25:23.169Z,5.25
2018-02-19T16:27:50.730Z,5.22
2018-02-19T16:30:18.587Z,5.21
2018-02-19T16:32:46.123Z,5.15
2018-02-19T16:35:13.684Z,5.14
2018-02-19T16:37:41.469Z,5.13
2018-02-19T16:40:08.997Z,5.12
2018-02-19T16:42:36.549Z,5.13
2018-02-19T16:45:04.112Z,5.14
2018-02-19T16:47:31.932Z,5.20
2018-02-19T16:49:59.483Z,5.19
2018-02-19T16:52:27.037Z,5.08
2018-02-19T16:54:54.591Z,5.06
2018-02-19T16:57:22.226Z,5.13
2018-02-19T16:59:49.764Z,5.10
2018-02-19T17:02:17.596Z,5.07
2018-02-19T17:04:45.459Z,5.06
2018-02-19T17:07:12.987Z,5.05
2018-02-19T17:09:40.516Z,4.99
2018-02-19T17:12:08.075Z,4.96
2018-02-19T17:14:35.606Z,4.90
2018-02-19T17:17:03.150Z,4.86
2018-02-19T17:19:30.756Z,4.88
2018-02-19T17:21:58.346Z,4.89
2018-02-19T17:24:25.989Z,4.87
2018-02-19T17:26:53.561Z,4.86
2018-02-19T17:29:21.104Z,4.86
2018-02-19T17:31:48.655Z,4.85
2018-02-19T17:36:50.021Z,4.83
2018-02-19T17:39:17.586Z,4.81
2018-02-19T17:41:45.136Z,4.79
2018-02-19T17:44:12.649Z,4.84
2018-02-19T17:46:40.458Z,4.86
2018-02-19T17:49:07.995Z,4.86
2018-02-19T17:51:35.577Z,4.78
2018-02-19T17:54:03.325Z,4.76
2018-02-19T17:56:30.963Z,4.76
2018-02-19T17:58:58.502Z,4.77
2018-02-19T18:01:26.327Z,4.81
2018-02-19T18:03:53.880Z,4.77
2018-02-19T18:06:21.406Z,4.74
2018-02-19T18:08:48.969Z,4.72
2018-02-19T18:11:16.510Z,4.72
2018-02-19T18:13:44.050Z,4.74
2018-02-19T18:16:11.658Z,4.77
2018-02-19T18:18:39.255Z,4.74
2018-02-19T18:21:06.788Z,4.77
2018-02-19T18:23:34.345Z,4.76
2018-02-19T18:26:01.914Z,4.71
2018-02-19T18:28:29.480Z,4.72
2018-02-19T18:30:57.041Z,4.68
2018-02-19T18:33:24.796Z,4.69
2018-02-19T18:35:52.466Z,4.71
2018-02-19T18:38:20.162Z,4.68
2018-02-19T18:40:47.715Z,4.75
2018-02-19T18:43:15.286Z,4.67
2018-02-19T18:45:42.916Z,4.63
2018-02-19T18:48:10.448Z,4.63
2018-02-19T18:50:38.151Z,4.63
2018-02-19T18:53:05.780Z,4.63
2018-02-19T18:55:33.502Z,4.63
2018-02-19T18:58:01.076Z,4.61
2018-02-19T19:00:29.875Z,4.60
2018-02-19T19:02:57.518Z,4.57
2018-02-19T19:05:25.099Z,4.52
2018-02-19T19:08:04.454Z,4.52
2018-02-19T19:10:45.766Z,4.55
2018-02-19T19:13:13.394Z,4.57
2018-02-19T19:15:40.970Z,4.58
2018-02-19T19:18:08.522Z,4.57
2018-02-19T19:20:36.124Z,4.52
2018-02-19T19:23:03.652Z,4.52
2018-02-19T19:25:31.258Z,4.53
2018-02-19T19:27:58.833Z,4.50
2018-02-19T19:30:26.360Z,4.50
2018-02-19T19:32:53.934Z,4.48
2018-02-19T19:35:21.740Z,4.47
2018-02-19T19:37:49.550Z,4.46
2018-02-19T19:40:17.150Z,4.45
2018-02-19T19:42:44.724Z,4.39
2018-02-19T19:45:12.274Z,4.39
2018-02-19T19:47:39.811Z,4.37
2018-02-19T19:50:07.363Z,4.35
2018-02-19T19:52:34.928Z,4.34
2018-02-19T19:55:02.902Z,4.33
2018-02-19T19:57:31.347Z,4.32
2018-02-19T19:59:58.931Z,4.32
2018-02-19T20:02:26.467Z,4.31
2018-02-19T20:04:54.084Z,4.36
2018-02-19T20:07:21.642Z,4.32
2018-02-19T20:09:49.161Z,4.27
2018-02-19T20:12:17.178Z,4.25
2018-02-19T20:14:45.417Z,4.23
2018-02-19T20:17:13.142Z,4.24
2018-02-19T20:19:40.732Z,4.26
2018-02-19T20:22:08.348Z,4.22
2018-02-19T20:24:35.887Z,4.26
2018-02-19T20:27:03.740Z,4.24
2018-02-19T20:29:31.602Z,4.19
2018-02-19T20:31:59.146Z,4.22
2018-02-19T20:34:26.777Z,4.20
2018-02-19T20:36:54.411Z,4.20
2018-02-19T20:39:22.244Z,4.14
2018-02-19T20:41:49.798Z,4.12
2018-02-19T20:44:18.546Z,4.08
2018-02-19T20:46:46.073Z,4.06
2018-02-19T20:49:13.662Z,4.07
2018-02-19T20:51:41.191Z,4.09
2018-02-19T20:54:08.715Z,4.07
2018-02-19T20:56:36.303Z,4.04
2018-02-19T20:59:03.858Z,4.06
2018-02-19T21:01:31.388Z,4.05
2018-02-19T21:03:58.983Z,4.04
2018-02-19T21:06:26.524Z,4.05
2018-02-19T21:08:54.034Z,4.07
2018-02-19T21:11:21.584Z,4.12
2018-02-19T21:13:49.250Z,4.05
2018-02-19T21:16:16.779Z,4.05
2018-02-19T21:18:44.359Z,4.05
2018-02-19T21:21:11.923Z,4.01
2018-02-19T21:23:39.471Z,4.03
2018-02-19T21:26:07.019Z,4.03
2018-02-19T21:28:34.542Z,4.07
2018-02-19T21:31:02.363Z,4.04
2018-02-19T21:33:29.966Z,3.99
2018-02-19T21:35:57.580Z,4.02
2018-02-19T21:38:25.143Z,3.97
2018-02-19T21:40:52.729Z,3.99
2018-02-19T21:43:20.265Z,3.97
2018-02-19T21:45:47.774Z,3.94
2018-02-19T21:48:16.187Z,3.92
2018-02-19T21:50:44.975Z,3.86
2018-02-19T21:53:12.505Z,3.83
2018-02-19T21:55:40.077Z,3.78
2018-02-19T21:58:07.684Z,3.78
2018-02-19T22:00:35.256Z,3.73
2018-02-19T22:03:02.888Z,3.74
2018-02-19T22:05:30.677Z,3.77
2018-02-19T22:07:58.197Z,3.75
2018-02-19T22:10:26.109Z,3.69
2018-02-19T22:12:53.718Z,3.67
2018-02-19T22:15:21.247Z,3.68
2018-02-19T22:17:48.826Z,3.62
2018-02-19T22:20:16.647Z,3.58
2018-02-19T22:22:44.428Z,3.57
2018-02-19T22:25:11.999Z,3.53
2018-02-19T22:27:39.512Z,3.52
2018-02-19T22:30:07.039Z,3.51
2018-02-19T22:32:34.601Z,3.57
2018-02-19T22:35:02.124Z,3.55
2018-02-19T22:37:29.669Z,3.49
2018-02-19T22:39:57.248Z,3.51
2018-02-19T22:42:25.106Z,3.45
2018-02-19T22:44:52.640Z,3.39
2018-02-19T22:47:20.204Z,3.40
2018-02-19T22:49:47.739Z,3.37
2018-02-19T22:52:15.549Z,3.36
2018-02-19T22:54:43.158Z,3.36
2018-02-19T22:57:10.978Z,3.30
2018-02-19T22:59:38.744Z,3.22
2018-02-19T23:02:06.335Z,3.17
2018-02-19T23:04:33.922Z,3.15
2018-02-19T23:07:01.740Z,3.25
2018-02-19T23:09:29.294Z,3.19
2018-02-19T23:11:57.058Z,3.11
2018-02-19T23:14:24.827Z,3.09
2018-02-19T23:16:52.397Z,3.03
2018-02-19T23:19:19.952Z,2.95
2018-02-19T23:21:47.480Z,2.99
2018-02-19T23:24:15.066Z,2.98
2018-02-19T23:26:42.597Z,2.87
2018-02-19T23:29:10.126Z,2.82
2018-02-19T23:31:37.666Z,2.86
2018-02-19T23:34:05.627Z,2.86
2018-02-19T23:36:33.498Z,2.96
2018-02-19T23:39:01.060Z,2.82
2018-02-19T23:41:28.919Z,2.83
2018-02-19T23:43:56.780Z,2.75
2018-02-19T23:46:24.344Z,2.76
2018-02-19T23:48:52.111Z,2.80
2018-02-19T23:51:19.643Z,2.76
2018-02-19T23:53:47.195Z,2.68
2018-02-19T23:56:14.729Z,2.67
2018-02-19T23:58:42.288Z,2.70
